Time;durP1;ratioP1;P1;durP2;ratioP2;P2;SDS_P1;SDS_P2;PMS_P1;PMS_P2;Temp;Humidity;BMP_temperature;BMP_pressure;BME280_temperature;BME280_humidity;BME280_pressure;Samples;Min_cycle;Max_cycle;Signal;HPM_P1;HPM_P2
2021/04/05 00:00:59;;;;;;;7.87;4.92;;;;;;;4.58;100.00;98720.46;1671141;85;21005;-63
2021/04/05 00:03:29;;;;;;;9.83;5.62;;;;;;;4.57;100.00;98715.22;1668705;85;21111;-63
2021/04/05 00:06:00;;;;;;;9.05;5.25;;;;;;;4.54;100.00;98717.80;1667416;84;20918;-62
2021/04/05 00:08:31;;;;;;;7.83;4.97;;;;;;;4.53;100.00;98723.45;1666931;85;21203;-63
2021/04/05 00:11:04;;;;;;;10.60;5.03;;;;;;;4.54;100.00;98729.55;1665773;84;21629;-63
2021/04/05 00:13:37;;;;;;;7.80;5.05;;;;;;;4.55;100.00;98719.55;1671258;84;21179;-63
2021/04/05 00:16:11;;;;;;;8.75;5.67;;;;;;;4.56;100.00;98722.61;1664166;84;21041;-63
2021/04/05 00:18:41;;;;;;;8.38;5.30;;;;;;;4.55;100.00;98716.52;1672257;84;21038;-63
2021/04/05 00:21:20;;;;;;;8.88;5.65;;;;;;;4.57;100.00;98708.69;1670859;84;21519;-63
2021/04/05 00:23:50;;;;;;;9.23;6.22;;;;;;;4.58;100.00;98710.02;1643748;85;21025;-63
2021/04/05 00:26:21;;;;;;;13.65;7.37;;;;;;;4.59;100.00;98712.20;1667304;84;21005;-63
2021/04/05 00:28:53;;;;;;;14.63;7.58;;;;;;;4.62;100.00;98716.14;1667476;84;28183;-63
2021/04/05 00:31:24;;;;;;;12.68;8.05;;;;;;;4.59;100.00;98714.80;1671610;84;21261;-63
2021/04/05 00:33:55;;;;;;;13.95;7.80;;;;;;;4.57;100.00;98713.91;1630012;86;21219;-63
2021/04/05 00:36:26;;;;;;;10.43;7.42;;;;;;;4.54;100.00;98709.53;1611426;87;21089;-63
2021/04/05 00:38:56;;;;;;;12.33;7.53;;;;;;;4.52;100.00;98711.69;1629143;86;21037;-63
2021/04/05 00:41:26;;;;;;;12.68;7.37;;;;;;;4.49;100.00;98707.30;1609366;87;21644;-62
2021/04/05 00:43:57;;;;;;;11.88;7.53;;;;;;;4.46;100.00;98702.05;1643452;84;21168;-63
2021/04/05 00:46:27;;;;;;;12.40;7.55;;;;;;;4.42;100.00;98712.02;1668667;84;21380;-63
2021/04/05 00:48:58;;;;;;;10.53;6.83;;;;;;;4.40;100.00;98712.42;1672439;84;21049;-63
2021/04/05 00:51:28;;;;;;;13.70;7.60;;;;;;;4.39;100.00;98698.50;1679114;84;21611;-63
2021/04/05 00:53:58;;;;;;;11.90;6.92;;;;;;;4.37;100.00;98702.83;1674406;84;21175;-63
2021/04/05 00:56:29;;;;;;;13.05;7.03;;;;;;;4.37;100.00;98705.44;1677911;84;21190;-63
2021/04/05 00:59:00;;;;;;;11.03;6.55;;;;;;;4.37;100.00;98704.56;1677790;84;21257;-63
2021/04/05 01:01:30;;;;;;;11.08;7.03;;;;;;;4.33;100.00;98694.94;1658362;84;21076;-63
2021/04/05 01:04:01;;;;;;;11.70;6.60;;;;;;;4.30;100.00;98690.56;1670374;84;21571;-63
2021/04/05 01:06:34;;;;;;;10.88;6.85;;;;;;;4.28;100.00;98688.79;1668682;84;21128;-63
2021/04/05 01:09:06;;;;;;;10.90;7.20;;;;;;;4.24;100.00;98696.98;1669302;84;20957;-63
2021/04/05 01:11:37;;;;;;;12.18;7.55;;;;;;;4.20;100.00;98693.89;1669443;85;25156;-63
2021/04/05 01:14:08;;;;;;;11.20;7.22;;;;;;;4.19;100.00;98692.56;1669236;84;21243;-63
2021/04/05 01:16:40;;;;;;;14.25;9.50;;;;;;;4.16;100.00;98693.84;1677819;84;21615;-63
2021/04/05 01:19:11;;;;;;;14.00;9.48;;;;;;;4.14;100.00;98685.98;1678021;84;21586;-63
2021/04/05 01:21:50;;;;;;;12.18;9.08;;;;;;;4.16;100.00;98682.09;1657652;85;21500;-63
2021/04/05 01:24:21;;;;;;;15.45;9.75;;;;;;;4.16;100.00;98680.78;1677222;84;21377;-63
2021/04/05 01:26:55;;;;;;;14.38;9.90;;;;;;;4.13;100.00;98680.32;1677695;84;21051;-63
2021/04/05 01:29:26;;;;;;;15.03;11.37;;;;;;;4.13;100.00;98677.71;1678090;84;21076;-62
2021/04/05 01:31:57;;;;;;;15.95;11.33;;;;;;;4.12;100.00;98672.05;1677185;84;21144;-63
2021/04/05 01:34:27;;;;;;;17.75;11.85;;;;;;;4.07;100.00;98670.69;1676958;84;20916;-62
2021/04/05 01:37:01;;;;;;;15.30;12.03;;;;;;;4.04;100.00;98666.73;1683941;84;21269;-62
2021/04/05 01:39:36;;;;;;;20.15;11.97;;;;;;;4.03;100.00;98670.63;1683886;85;21182;-62
2021/04/05 01:42:07;;;;;;;14.05;11.20;;;;;;;4.03;100.00;98666.28;1686212;83;21530;-63
2021/04/05 01:44:39;;;;;;;15.60;11.15;;;;;;;4.02;100.00;98669.75;1665655;85;21144;-63
2021/04/05 01:47:10;;;;;;;12.98;9.98;;;;;;;4.02;100.00;98672.37;1637867;87;21147;-62
2021/04/05 01:49:40;;;;;;;15.10;9.65;;;;;;;4.02;100.00;98668.45;1646774;86;21543;-63
2021/04/05 01:52:17;;;;;;;16.82;9.08;;;;;;;4.03;100.00;98658.45;1647942;86;21115;-63
2021/04/05 01:54:49;;;;;;;13.75;9.13;;;;;;;4.05;100.00;98658.05;1646256;86;21621;-63
2021/04/05 01:57:19;;;;;;;12.05;8.25;;;;;;;4.04;100.00;98661.52;1648045;86;21207;-63
2021/04/05 01:59:50;;;;;;;12.03;7.95;;;;;;;3.99;100.00;98657.97;1646934;86;21151;-63
2021/04/05 02:02:20;;;;;;;11.95;7.50;;;;;;;3.96;100.00;98655.76;1648149;86;21567;-63
2021/04/05 02:04:50;;;;;;;14.20;8.20;;;;;;;3.91;100.00;98652.22;1625080;86;20989;-63
2021/04/05 02:07:20;;;;;;;13.28;9.18;;;;;;;3.87;100.00;98651.73;1648234;86;20973;-63
2021/04/05 02:09:52;;;;;;;16.77;11.12;;;;;;;3.87;100.00;98645.20;1634419;87;21101;-63
2021/04/05 02:12:22;;;;;;;18.42;12.03;;;;;;;3.88;100.00;98649.14;1634533;87;20938;-63
2021/04/05 02:14:53;;;;;;;18.60;10.82;;;;;;;3.89;100.00;98645.67;1636392;87;21223;-63
2021/04/05 02:17:23;;;;;;;13.60;8.93;;;;;;;3.89;100.00;98637.84;1634424;87;21124;-63
2021/04/05 02:19:53;;;;;;;11.85;7.97;;;;;;;3.90;100.00;98636.98;1613033;87;21002;-63
2021/04/05 02:22:24;;;;;;;10.18;7.53;;;;;;;3.92;100.00;98636.58;1634702;87;21092;-65
2021/04/05 02:24:54;;;;;;;12.50;7.35;;;;;;;3.94;100.00;98632.69;1635562;87;21084;-60
2021/04/05 02:27:24;;;;;;;11.08;6.95;;;;;;;3.93;100.00;98630.50;1633998;87;21440;-64
2021/04/05 02:29:55;;;;;;;17.52;7.83;;;;;;;3.90;100.00;98630.47;1634596;87;21107;-64
2021/04/05 02:32:25;;;;;;;13.30;8.10;;;;;;;3.89;100.00;98634.36;1634525;87;20982;-64
2021/04/05 02:34:55;;;;;;;14.58;7.83;;;;;;;3.87;100.00;98636.95;1635481;86;21109;-65
2021/04/05 02:37:26;;;;;;;12.80;6.97;;;;;;;3.88;100.00;98639.13;1609628;87;20982;-65
2021/04/05 02:39:56;;;;;;;12.60;6.75;;;;;;;3.86;100.00;98639.12;1668926;84;21545;-64
2021/04/05 02:42:26;;;;;;;12.53;7.03;;;;;;;3.88;100.00;98630.88;1668871;84;21120;-65
2021/04/05 02:44:57;;;;;;;16.32;7.72;;;;;;;3.84;100.00;98630.83;1643119;86;21577;-65
2021/04/05 02:47:28;;;;;;;14.03;6.85;;;;;;;3.75;100.00;98632.86;1654945;86;21077;-60
2021/04/05 02:49:58;;;;;;;12.88;7.87;;;;;;;3.70;100.00;98622.80;1655806;86;21560;-65
2021/04/05 02:52:29;;;;;;;15.40;7.78;;;;;;;3.66;100.00;98628.83;1655678;86;21157;-65
2021/04/05 02:54:58;;;;;;;12.98;7.03;;;;;;;3.61;100.00;98622.68;1630372;87;20997;-65
2021/04/05 02:57:29;;;;;;;10.23;6.75;;;;;;;3.53;100.00;98622.58;1590643;89;21018;-66
2021/04/05 02:59:59;;;;;;;9.90;6.00;;;;;;;3.47;100.00;98616.86;1593489;87;21108;-67
2021/04/05 03:02:30;;;;;;;12.25;5.83;;;;;;;3.44;100.00;98623.33;1616314;87;21128;-63
2021/04/05 03:05:02;;;;;;;11.10;5.78;;;;;;;3.43;100.00;98614.19;1655539;84;22132;-66
2021/04/05 03:07:32;;;;;;;16.02;7.42;;;;;;;3.47;100.00;98619.47;1675852;84;21611;-66
2021/04/05 03:10:07;;;;;;;10.20;6.42;;;;;;;3.50;100.00;98618.62;1668956;84;21515;-65
2021/04/05 03:12:39;;;;;;;12.10;7.00;;;;;;;3.55;100.00;98616.95;1674497;84;20976;-64
2021/04/05 03:15:13;;;;;;;10.93;6.05;;;;;;;3.57;100.00;98619.58;1678137;84;20974;-65
2021/04/05 03:17:44;;;;;;;8.53;5.55;;;;;;;3.57;100.00;98617.86;1678066;84;21208;-64
2021/04/05 03:20:20;;;;;;;8.33;5.45;;;;;;;3.56;100.00;98606.09;1678070;84;21159;-63
2021/04/05 03:22:50;;;;;;;10.20;5.95;;;;;;;3.55;100.00;98610.87;1681845;84;20977;-63
2021/04/05 03:25:22;;;;;;;10.15;5.70;;;;;;;3.54;100.00;98611.30;1678238;84;21536;-63
2021/04/05 03:27:52;;;;;;;13.10;6.17;;;;;;;3.58;100.00;98614.39;1678236;84;21093;-63
2021/04/05 03:30:32;;;;;;;9.60;6.30;;;;;;;3.57;100.00;98615.25;1678086;84;21290;-63
2021/04/05 03:33:27;;;;;;;13.32;6.78;;;;;;;3.57;100.00;98615.25;1677294;84;20997;-64
2021/04/05 03:36:00;;;;;;;11.30;6.90;;;;;;;3.55;100.00;98618.27;1693247;83;20930;-63
2021/04/05 03:38:30;;;;;;;11.55;6.42;;;;;;;3.55;100.00;98609.13;1698478;83;20958;-64
2021/04/05 03:41:00;;;;;;;13.98;5.87;;;;;;;3.54;100.00;98613.02;1698444;83;20961;-62
2021/04/05 03:43:43;;;;;;;9.50;5.67;;;;;;;3.53;100.00;98612.15;1697388;83;21225;-63
2021/04/05 03:46:23;;;;;;;9.73;5.80;;;;;;;3.51;100.00;98612.98;1666926;85;21138;-64
2021/04/05 03:49:19;;;;;;;12.55;6.35;;;;;;;3.52;100.00;98612.13;1664470;86;20996;-63
2021/04/05 03:51:56;;;;;;;7.92;5.40;;;;;;;3.50;100.00;98621.23;1636275;87;21116;-64
2021/04/05 03:54:27;;;;;;;33.95;6.30;;;;;;;3.51;100.00;98613.86;1632641;86;20978;-58
2021/04/05 03:56:57;;;;;;;7.70;5.55;;;;;;;3.53;100.00;98616.06;1668466;85;21460;-63
2021/04/05 03:59:32;;;;;;;8.90;5.75;;;;;;;3.55;100.00;98608.26;1620802;87;21137;-62
2021/04/05 04:02:17;;;;;;;8.15;5.58;;;;;;;3.56;100.00;98603.48;1641570;86;20985;-62
2021/04/05 04:05:09;;;;;;;8.48;5.30;;;;;;;3.57;100.00;98605.24;1641294;86;21628;-63
2021/04/05 04:07:45;;;;;;;9.45;5.47;;;;;;;3.57;100.00;98604.81;1594060;88;21121;-64
2021/04/05 04:10:15;;;;;;;15.25;5.42;;;;;;;3.59;100.00;98603.53;1606082;87;21450;-63
2021/04/05 04:12:47;;;;;;;9.15;5.55;;;;;;;3.59;100.00;98597.89;1620820;87;21145;-63
2021/04/05 04:15:17;;;;;;;8.05;5.33;;;;;;;3.60;100.00;98596.16;1640689;86;21568;-62
2021/04/05 04:17:48;;;;;;;11.22;5.95;;;;;;;3.60;100.00;98594.85;1599417;87;21172;-63
2021/04/05 04:20:18;;;;;;;12.73;5.58;;;;;;;3.57;100.00;98588.29;1635528;87;21140;-61
2021/04/05 04:22:48;;;;;;;10.03;6.00;;;;;;;3.56;100.00;98591.75;1648216;86;21426;-62
2021/04/05 04:25:17;;;;;;;14.03;6.05;;;;;;;3.55;100.00;98590.00;1648092;86;21253;-63
2021/04/05 04:27:47;;;;;;;11.60;6.42;;;;;;;3.56;100.00;98586.11;1648274;86;21108;-63
2021/04/05 04:30:32;;;;;;;9.78;6.75;;;;;;;3.58;100.00;98587.44;1648242;86;20958;-63
2021/04/05 04:33:06;;;;;;;11.48;6.42;;;;;;;3.63;100.00;98594.89;1648359;86;21103;-63
2021/04/05 04:35:38;;;;;;;9.48;6.37;;;;;;;3.67;100.00;98593.64;1644693;86;21393;-63
2021/04/05 04:38:07;;;;;;;10.63;6.60;;;;;;;3.74;100.00;98586.33;1639328;86;21156;-63
2021/04/05 04:40:37;;;;;;;10.58;7.28;;;;;;;3.81;100.00;98584.70;1640575;86;21535;-62
2021/04/05 04:43:06;;;;;;;9.68;7.17;;;;;;;3.84;100.00;98583.44;1640467;87;21091;-63
2021/04/05 04:45:36;;;;;;;15.32;9.33;;;;;;;3.88;100.00;98583.91;1640522;86;20986;-63
2021/04/05 04:48:07;;;;;;;20.97;12.35;;;;;;;3.90;100.00;98580.89;1639529;86;21227;-62
2021/04/05 04:50:37;;;;;;;20.20;11.15;;;;;;;3.94;100.00;98585.72;1640400;86;21104;-62
2021/04/05 04:53:08;;;;;;;19.70;10.28;;;;;;;3.97;100.00;98581.41;1639621;86;21508;-63
2021/04/05 04:55:38;;;;;;;15.78;9.83;;;;;;;4.01;100.00;98577.09;1640510;86;21535;-64
2021/04/05 04:58:10;;;;;;;16.32;9.45;;;;;;;4.07;100.00;98579.77;1640845;86;20954;-63
2021/04/05 05:00:39;;;;;;;13.78;9.03;;;;;;;4.14;100.00;98575.48;1640503;86;21402;-63
2021/04/05 05:03:08;;;;;;;11.95;8.08;;;;;;;4.21;100.00;98566.42;1640517;87;21543;-63
2021/04/05 05:05:37;;;;;;;13.32;8.13;;;;;;;4.30;100.00;98566.54;1640507;86;20996;-63
2021/04/05 05:08:07;;;;;;;12.45;7.58;;;;;;;4.39;100.00;98567.93;1640444;86;21516;-63
2021/04/05 05:10:36;;;;;;;11.88;7.30;;;;;;;4.53;100.00;98567.17;1640502;86;20989;-63
2021/04/05 05:13:06;;;;;;;16.87;7.30;;;;;;;4.64;100.00;98557.69;1640511;86;21226;-63
2021/04/05 05:15:39;;;;;;;10.78;6.87;;;;;;;4.78;100.00;98556.08;1640497;86;21532;-63
2021/04/05 05:18:08;;;;;;;12.58;7.22;;;;;;;4.89;100.00;98549.19;1640489;86;20973;-63
2021/04/05 05:20:37;;;;;;;11.88;7.17;;;;;;;5.00;100.00;98558.41;1640468;86;21084;-63
2021/04/05 05:23:07;;;;;;;8.55;5.42;;;;;;;5.12;100.00;98557.61;1640534;86;20926;-63
2021/04/05 05:25:37;;;;;;;7.10;4.80;;;;;;;5.28;100.00;98556.42;1640589;86;22335;-63
2021/04/05 05:28:09;;;;;;;8.80;5.35;;;;;;;5.39;100.00;98549.94;1640430;86;21544;-64
2021/04/05 05:30:40;;;;;;;9.15;4.87;;;;;;;5.50;100.00;98541.70;1640442;86;21001;-63
2021/04/05 05:33:10;;;;;;;8.78;5.03;;;;;;;5.61;100.00;98541.31;1618452;87;21108;-63
2021/04/05 05:35:40;;;;;;;6.85;4.42;;;;;;;5.76;100.00;98543.58;1642891;86;21511;-63
2021/04/05 05:38:10;;;;;;;8.20;4.95;;;;;;;5.88;100.00;98522.23;1647562;86;21285;-64
2021/04/05 05:40:42;;;;;;;24.55;10.88;;;;;;;5.97;100.00;98524.03;1665482;85;21119;-64
2021/04/05 05:43:41;;;;;;;44.48;17.48;;;;;;;6.06;100.00;98527.97;1647552;86;20989;-64
2021/04/05 05:46:23;;;;;;;30.08;11.73;;;;;;;6.17;100.00;98527.59;1647553;86;20989;-64
2021/04/05 05:49:21;;;;;;;;;;;;;;;6.27;100.00;98528.03;1667651;86;21123;-64
2021/04/05 05:52:10;;;;;;;10.75;6.42;;;;;;;6.35;100.00;98524.11;1647674;86;21429;-64
2021/04/05 05:55:14;;;;;;;10.88;6.58;;;;;;;6.44;100.00;98528.48;1647573;86;21024;-64
2021/04/05 05:57:47;;;;;;;9.40;6.15;;;;;;;6.49;100.00;98528.92;1647761;87;21537;-64
2021/04/05 06:00:32;;;;;;;11.18;6.00;;;;;;;6.58;100.00;98532.84;1647637;86;21083;-64
2021/04/05 06:03:30;;;;;;;8.28;5.03;;;;;;;6.66;100.00;98531.56;1665133;85;21092;-64
2021/04/05 06:06:19;;;;;;;7.75;5.22;;;;;;;6.74;100.00;98525.88;1647312;86;21409;-64
2021/04/05 06:09:13;;;;;;;8.30;5.40;;;;;;;6.83;100.00;98529.80;1647597;86;21013;-64
2021/04/05 06:12:10;;;;;;;7.65;5.28;;;;;;;6.92;100.00;98528.47;1647659;86;20977;-64
2021/04/05 06:15:11;;;;;;;9.08;5.30;;;;;;;7.00;100.00;98520.59;1647616;86;20973;-64
2021/04/05 06:18:06;;;;;;;6.67;4.45;;;;;;;7.07;100.00;98525.39;1630826;86;21491;-64
2021/04/05 06:20:42;;;;;;;7.28;4.75;;;;;;;7.11;100.00;98528.03;1647678;86;21398;-64
2021/04/05 06:23:35;;;;;;;5.90;4.20;;;;;;;7.12;100.00;98520.59;1647590;86;20993;-65
2021/04/05 06:26:45;;;;;;;6.15;4.45;;;;;;;7.17;100.00;98514.03;1647778;86;21124;-64
2021/04/05 06:29:54;;;;;;;6.87;4.28;;;;;;;7.15;100.00;98520.59;1647626;86;21510;-64
2021/04/05 06:32:57;;;;;;;8.78;4.17;;;;;;;7.21;100.00;98519.27;1647644;86;21109;-65
2021/04/05 06:36:02;;;;;;;7.05;4.03;;;;;;;7.31;100.00;98516.61;1647673;86;21279;-64
2021/04/05 06:38:35;;;;;;;6.37;4.30;;;;;;;7.46;100.00;98516.55;1647662;86;21160;-64
2021/04/05 06:41:19;;;;;;;14.68;4.70;;;;;;;7.58;100.00;98509.53;1647671;86;20981;-64
2021/04/05 06:44:12;;;;;;;7.45;4.30;;;;;;;7.68;100.00;98512.11;1647614;86;21094;-65
2021/04/05 06:46:59;;;;;;;6.30;4.10;;;;;;;7.82;100.00;98512.91;1647715;86;20997;-65
2021/04/05 06:50:00;;;;;;;6.30;3.70;;;;;;;7.95;100.00;98511.09;1647605;86;21221;-65
2021/04/05 06:53:03;;;;;;;7.80;4.12;;;;;;;8.07;100.00;98509.29;1665667;85;21139;-64
2021/04/05 06:55:48;;;;;;;6.90;4.25;;;;;;;8.24;100.00;98508.30;1647600;86;21107;-64
2021/04/05 06:58:47;;;;;;;6.62;4.45;;;;;;;8.37;100.00;98502.10;1647686;86;20965;-64
2021/04/05 07:01:40;;;;;;;8.25;4.35;;;;;;;8.51;100.00;98502.86;1666598;85;20983;-65
2021/04/05 07:04:39;;;;;;;6.40;4.20;;;;;;;8.70;100.00;98497.91;1842248;78;22684;-65
2021/04/05 07:07:26;;;;;;;6.20;4.30;;;;;;;8.79;100.00;98501.77;1788032;79;20922;-65
2021/04/05 07:10:23;;;;;;;6.42;4.00;;;;;;;8.91;100.00;98506.47;1807489;79;21126;-65
2021/04/05 07:13:06;;;;;;;5.90;3.85;;;;;;;9.00;100.00;98504.66;1817431;79;20954;-66
2021/04/05 07:16:13;;;;;;;7.05;4.00;;;;;;;9.15;100.00;98491.34;1817458;79;21571;-65
2021/04/05 07:19:21;;;;;;;5.97;3.92;;;;;;;9.28;100.00;98494.70;1817362;78;21337;-64
2021/04/05 07:22:23;;;;;;;3.20;2.55;;;;;;;9.46;100.00;98494.95;1817443;79;20989;-66
2021/04/05 07:25:02;;;;;;;5.00;2.77;;;;;;;9.58;97.54;98477.69;1817381;78;20926;-66
2021/04/05 07:28:14;;;;;;;4.05;2.77;;;;;;;9.61;93.26;98475.46;1817464;78;20970;-67
2021/04/05 07:30:49;;;;;;;;;;;;;;;9.64;93.24;98473.66;1820258;78;20914;-65
2021/04/05 07:33:39;;;;;;;4.00;2.37;;;;;;;9.68;90.96;98469.22;1817353;79;20133;-65
2021/04/05 07:36:46;;;;;;;3.47;2.67;;;;;;;9.62;87.87;98465.36;1817435;79;21586;-65
2021/04/05 07:39:36;;;;;;;4.15;2.25;;;;;;;9.53;86.30;98465.03;1817447;79;21427;-64
2021/04/05 07:42:40;;;;;;;3.92;2.27;;;;;;;9.46;84.77;98460.73;1817417;78;20926;-64
2021/04/05 07:45:23;;;;;;;4.03;2.50;;;;;;;9.34;83.52;98455.15;1817387;78;21575;-65
2021/04/05 07:48:17;;;;;;;2.90;2.30;;;;;;;9.30;83.29;98453.44;1817426;78;21461;-64
2021/04/05 07:51:00;;;;;;;3.30;2.50;;;;;;;9.34;83.46;98452.96;1817603;79;20899;-66
2021/04/05 07:53:48;;;;;;;;;;;;;;;9.36;83.00;98451.18;1818852;79;21534;-67
2021/04/05 07:56:24;;;;;;;3.27;2.25;;;;;;;9.39;82.85;98446.75;1761814;79;20117;-68
2021/04/05 07:59:13;;;;;;;3.65;2.40;;;;;;;9.49;82.82;98446.66;1817448;79;20875;-65
2021/04/05 08:01:51;;;;;;;5.37;2.30;;;;;;;9.57;82.63;98444.80;1817482;79;20954;-65
2021/04/05 08:04:49;;;;;;;4.72;2.10;;;;;;;9.74;82.73;98442.80;1750506;79;20911;-66
2021/04/05 08:07:56;;;;;;;3.75;2.55;;;;;;;9.84;82.12;98443.09;1801490;78;21259;-65
2021/04/05 08:10:52;;;;;;;4.10;2.62;;;;;;;9.92;82.36;98437.71;1801505;79;21454;-66
2021/04/05 08:14:03;;;;;;;3.27;2.22;;;;;;;10.13;81.07;98437.41;1766588;79;21077;-66
2021/04/05 08:17:07;;;;;;;3.50;2.22;;;;;;;10.27;81.62;98434.14;1800871;78;21494;-66
2021/04/05 08:19:45;;;;;;;3.27;2.37;;;;;;;10.48;80.35;98434.70;1800912;78;20990;-66
2021/04/05 08:22:26;;;;;;;2.80;2.30;;;;;;;10.69;79.73;98430.37;1800885;78;21189;-66
2021/04/05 08:25:41;;;;;;;3.62;2.45;;;;;;;10.87;78.20;98420.80;1800920;78;20883;-67
2021/04/05 08:28:21;;;;;;;3.12;2.50;;;;;;;10.97;75.52;98413.60;1799950;78;21466;-66
2021/04/05 08:31:33;;;;;;;3.95;2.45;;;;;;;11.14;75.25;98402.70;1800948;79;20927;-68
2021/04/05 08:34:55;;;;;;;4.62;2.60;;;;;;;11.33;73.57;98405.39;1800849;78;20904;-67
2021/04/05 08:37:42;;;;;;;4.05;2.30;;;;;;;11.51;74.04;98397.55;1800861;78;21344;-67
2021/04/05 08:40:56;;;;;;;3.45;2.60;;;;;;;11.69;72.25;98398.45;1795185;79;21660;-67
2021/04/05 08:43:49;;;;;;;5.22;2.27;;;;;;;11.81;70.25;98390.73;1749176;78;21473;-67
2021/04/05 08:46:21;;;;;;;4.17;2.42;;;;;;;11.81;67.03;98380.17;1801020;78;20879;-67
2021/04/05 08:48:56;;;;;;;2.77;2.17;;;;;;;11.77;65.38;98376.70;1801020;78;20927;-67
2021/04/05 08:51:45;;;;;;;3.02;1.90;;;;;;;11.75;63.27;98375.86;1800866;78;21364;-67
2021/04/05 08:54:18;;;;;;;3.55;2.00;;;;;;;11.79;62.03;98377.56;1800752;79;21010;-68
2021/04/05 08:56:53;;;;;;;4.65;2.33;;;;;;;11.79;57.46;98377.56;1800900;79;21006;-70
2021/04/05 08:59:30;;;;;;;3.20;2.15;;;;;;;11.80;57.44;98374.47;1800848;79;20903;-69
2021/04/05 09:02:19;;;;;;;4.80;2.62;;;;;;;11.94;58.13;98370.63;1800852;78;20982;-70
2021/04/05 09:04:49;;;;;;;2.75;2.12;;;;;;;12.11;56.79;98364.05;1805429;78;21362;-69
2021/04/05 09:07:41;;;;;;;4.05;2.52;;;;;;;12.22;55.95;98360.23;1805548;79;21018;-69
2021/04/05 09:10:13;;;;;;;2.25;2.05;;;;;;;12.38;56.26;98354.13;1805540;78;20927;-69
2021/04/05 09:39:17;;;;;;;3.72;1.90;;;;;;;13.36;50.09;98318.36;1853637;77;22659;-70
2021/04/05 09:42:08;;;;;;;3.47;1.80;;;;;;;13.09;48.79;98313.37;1842474;77;20906;-70
2021/04/05 09:44:58;;;;;;;1.72;1.40;;;;;;;12.53;48.45;98303.45;1772140;78;21774;-69
2021/04/05 09:47:57;;;;;;;2.40;1.72;;;;;;;11.99;49.28;98316.33;1789064;79;20930;-69
2021/04/05 09:50:40;;;;;;;3.20;1.90;;;;;;;11.53;50.27;98317.83;1829486;77;20895;-67
2021/04/05 09:53:58;;;;;;;2.83;2.00;;;;;;;11.14;50.44;98311.64;1780079;79;20902;-69
2021/04/05 09:56:31;;;;;;;2.35;1.80;;;;;;;10.83;51.52;98308.31;1836532;77;20911;-68
2021/04/05 09:59:10;;;;;;;6.60;1.90;;;;;;;10.56;51.22;98296.55;1768170;78;22310;-68
2021/04/05 10:01:41;;;;;;;2.25;1.77;;;;;;;10.39;51.72;98302.56;1790544;79;21475;-68
2021/04/05 10:04:14;;;;;;;2.37;1.60;;;;;;;10.29;52.40;98304.95;1783742;79;21081;-68
2021/04/05 10:06:46;;;;;;;3.02;2.10;;;;;;;10.24;51.74;98302.84;1820598;77;21013;-69
2021/04/05 10:09:16;;;;;;;3.72;1.70;;;;;;;10.17;52.18;98296.79;1778022;79;21551;-69
2021/04/05 10:11:46;;;;;;;4.47;1.52;;;;;;;10.09;53.11;98294.30;1835249;77;21123;-68
2021/04/05 10:14:22;;;;;;;2.27;1.70;;;;;;;10.04;52.89;98297.45;1802952;78;21567;-68
2021/04/05 10:16:55;;;;;;;2.62;1.62;;;;;;;10.00;53.29;98294.45;1787712;78;20926;-69
2021/04/05 10:19:29;;;;;;;2.87;1.67;;;;;;;10.01;52.78;98288.29;1823614;77;21085;-68
2021/04/05 10:22:05;;;;;;;5.72;1.90;;;;;;;10.04;53.06;98284.73;1779533;79;21039;-69
2021/04/05 10:24:38;;;;;;;2.55;1.70;;;;;;;10.12;53.21;98281.51;1823092;77;21359;-69
2021/04/05 10:27:08;;;;;;;3.45;1.80;;;;;;;10.15;53.28;98281.91;1758558;79;21495;-69
2021/04/05 10:29:39;;;;;;;3.52;2.15;;;;;;;10.23;53.84;98272.13;1797992;79;20934;-68
2021/04/05 10:32:10;;;;;;;2.75;1.90;;;;;;;10.32;54.02;98269.31;1771400;79;20942;-69
2021/04/05 10:34:39;;;;;;;2.75;1.87;;;;;;;10.44;53.98;98269.55;1771411;79;21076;-70
2021/04/05 10:37:11;;;;;;;1.92;1.77;;;;;;;10.50;52.49;98273.39;1743978;79;21374;-69
2021/04/05 10:39:49;;;;;;;3.70;1.98;;;;;;;10.55;51.67;98264.94;1803822;77;21057;-68
2021/04/05 10:42:25;;;;;;;3.72;1.70;;;;;;;10.57;49.36;98260.05;1792087;77;21059;-63
2021/04/05 10:44:59;;;;;;;1.90;1.60;;;;;;;10.56;48.11;98258.76;1772423;80;20946;-63
2021/04/05 10:47:33;;;;;;;3.52;2.10;;;;;;;10.60;48.17;98253.39;1779951;79;21266;-64
2021/04/05 10:50:03;;;;;;;2.95;1.80;;;;;;;10.73;49.00;98250.91;1758725;80;22297;-64
2021/04/05 10:52:42;;;;;;;1.60;1.50;;;;;;;10.87;48.97;98249.30;1745192;80;21091;-64
2021/04/05 10:55:20;;;;;;;5.40;2.00;;;;;;;11.09;48.37;98253.68;1801700;78;20959;-66
2021/04/05 10:57:55;;;;;;;2.47;1.80;;;;;;;11.31;47.81;98246.13;1822795;78;21014;-68
2021/04/05 11:00:35;;;;;;;13.32;2.70;;;;;;;11.51;47.91;98233.80;1781356;77;21232;-67
2021/04/05 11:03:19;;;;;;;6.35;3.60;;;;;;;11.71;47.39;98234.17;1803009;77;21367;-70
2021/04/05 11:05:50;;;;;;;4.53;2.37;;;;;;;11.90;48.07;98222.29;1798524;78;20986;-72
2021/04/05 11:08:24;;;;;;;2.75;2.00;;;;;;;12.03;46.03;98226.80;1790607;78;21770;-70
2021/04/05 11:11:07;;;;;;;3.60;2.17;;;;;;;12.06;43.55;98219.23;1805672;77;21238;-72
2021/04/05 11:13:46;;;;;;;1.92;1.60;;;;;;;12.04;42.10;98216.63;1827465;77;22774;-71
2021/04/05 11:16:20;;;;;;;2.45;1.60;;;;;;;11.93;41.80;98216.05;1733397;81;21069;-72
2021/04/05 11:18:57;;;;;;;2.05;1.60;;;;;;;11.89;41.64;98212.63;1738692;82;21535;-73
2021/04/05 11:21:38;;;;;;;3.27;2.00;;;;;;;11.90;42.38;98202.47;1724343;82;21556;-70
2021/04/05 11:24:10;;;;;;;3.58;2.60;;;;;;;12.04;43.01;98199.91;1731741;81;21116;-72
2021/04/05 11:26:44;;;;;;;2.92;2.17;;;;;;;12.27;43.39;98195.72;1719252;82;21011;-72
2021/04/05 11:29:16;;;;;;;3.62;1.75;;;;;;;12.48;43.10;98191.62;1701424;82;21010;-73
2021/04/05 11:31:48;;;;;;;3.37;2.25;;;;;;;12.72;42.97;98191.80;1702035;82;21446;-71
2021/04/05 11:34:37;;;;;;;4.90;2.10;;;;;;;12.87;42.64;98186.95;1726019;82;21632;-72
2021/04/05 11:37:14;;;;;;;3.30;2.00;;;;;;;12.98;41.46;98174.70;1765496;80;21008;-73
2021/04/05 11:39:50;;;;;;;2.63;1.80;;;;;;;12.95;39.99;98179.23;1740311;81;21168;-72
2021/04/05 11:42:24;;;;;;;2.33;1.60;;;;;;;12.79;39.65;98179.70;1710188;81;21144;-72
2021/04/05 11:45:08;;;;;;;3.62;2.17;;;;;;;12.64;39.12;98172.19;1687864;81;24950;-71
2021/04/05 11:47:48;;;;;;;2.70;1.85;;;;;;;12.52;38.66;98167.27;1715777;81;20934;-72
2021/04/05 11:50:23;;;;;;;2.12;1.60;;;;;;;12.42;38.88;98168.45;1740157;81;20999;-73
2021/04/05 11:53:10;;;;;;;3.72;1.90;;;;;;;12.35;38.82;98158.51;1721575;81;21211;-72
2021/04/05 11:55:50;;;;;;;2.47;1.80;;;;;;;12.27;39.10;98154.73;1740059;81;21034;-73
2021/04/05 11:58:31;;;;;;;2.67;2.02;;;;;;;12.13;38.56;98158.23;1725336;81;22155;-74
2021/04/05 12:01:03;;;;;;;2.65;1.77;;;;;;;11.89;38.49;98153.17;1730265;82;21101;-71
2021/04/05 12:03:58;;;;;;;2.85;2.05;;;;;;;11.74;38.20;98153.52;1730140;82;20896;-71
2021/04/05 12:06:37;;;;;;;2.27;1.70;;;;;;;11.77;38.55;98152.11;1766178;80;21239;-72
2021/04/05 12:09:15;;;;;;;3.70;1.85;;;;;;;11.81;38.55;98147.64;1727697;81;21163;-72
2021/04/05 12:11:50;;;;;;;56.20;26.62;;;;;;;11.87;38.68;98144.41;1729477;82;22293;-73
2021/04/05 12:14:26;;;;;;;19.10;8.93;;;;;;;11.96;39.29;98138.01;1710900;82;20982;-71
2021/04/05 12:16:58;;;;;;;29.37;14.60;;;;;;;12.03;39.44;98140.02;1733817;82;21022;-72
2021/04/05 12:19:34;;;;;;;19.92;9.03;;;;;;;12.09;39.44;98132.79;1727800;82;21128;-71
2021/04/05 12:22:05;;;;;;;97.78;45.38;;;;;;;12.15;39.00;98127.78;1732189;81;21198;-71
2021/04/05 12:24:39;;;;;;;31.52;16.07;;;;;;;12.13;38.79;98125.18;1742230;81;22269;-70
2021/04/05 12:27:13;;;;;;;30.85;16.25;;;;;;;12.10;38.98;98124.41;1728054;80;20954;-74
2021/04/05 12:29:43;;;;;;;62.17;29.48;;;;;;;12.11;38.91;98115.56;1752420;82;20927;-69
2021/04/05 12:32:18;;;;;;;43.13;19.03;;;;;;;12.10;38.62;98122.62;1750116;80;20926;-69
2021/04/05 12:34:52;;;;;;;13.32;6.62;;;;;;;12.10;38.59;98115.15;1751077;80;21140;-68
2021/04/05 12:37:24;;;;;;;48.48;22.40;;;;;;;12.10;38.43;98108.55;1766929;79;21593;-68
2021/04/05 12:40:00;;;;;;;13.62;5.50;;;;;;;12.10;38.45;98104.58;1761432;79;21155;-70
2021/04/05 12:42:34;;;;;;;4.45;2.55;;;;;;;12.07;38.27;98100.25;1740285;81;21536;-70
2021/04/05 12:45:11;;;;;;;52.08;37.23;;;;;;;12.04;37.92;98095.50;1722234;82;20970;-70
2021/04/05 12:47:42;;;;;;;60.08;35.68;;;;;;;12.02;37.97;98096.88;1742789;81;20997;-71